Time;durP1;ratioP1;P1;durP2;ratioP2;P2;SDS_P1;SDS_P2;PMS_P1;PMS_P2;Temp;Humidity;BMP_temperature;BMP_pressure;BME280_temperature;BME280_humidity;BME280_pressure;Samples;Min_cycle;Max_cycle;Signal;HPM_P1;HPM_P2
2022/04/21 00:02:25;;;;;;;6.38;4.40;;;10.10;99.90;;;;;;5076514;28;20118;-74
2022/04/21 00:04:50;;;;;;;9.15;4.60;;;10.10;99.90;;;;;;5076238;28;20127;-74
2022/04/21 00:07:16;;;;;;;6.97;4.63;;;10.10;99.90;;;;;;5076190;28;20040;-74
2022/04/21 00:09:41;;;;;;;9.18;4.70;;;10.00;99.90;;;;;;5076160;28;20043;-74
2022/04/21 00:12:07;;;;;;;6.88;4.40;;;10.00;99.90;;;;;;5059804;28;20036;-74
2022/04/21 00:14:33;;;;;;;8.68;4.70;;;9.90;99.90;;;;;;5076141;28;20496;-74
2022/04/21 00:17:02;;;;;;;8.27;4.70;;;9.90;99.90;;;;;;5076319;28;20118;-74
2022/04/21 00:19:27;;;;;;;6.25;4.43;;;9.90;99.90;;;;;;5075982;28;20040;-74
2022/04/21 00:24:37;;;;;;;7.03;4.75;;;9.80;99.90;;;;;;5075778;28;20040;-74
2022/04/21 00:27:03;;;;;;;6.85;4.47;;;9.80;99.90;;;;;;5076148;28;20063;-74
2022/04/21 00:29:28;;;;;;;7.13;4.55;;;9.80;99.90;;;;;;5075589;28;20151;-74
2022/04/21 00:31:54;;;;;;;7.97;5.13;;;9.70;99.90;;;;;;5075770;28;20039;-74
2022/04/21 00:34:20;;;;;;;6.68;4.85;;;9.80;99.90;;;;;;5075691;28;20089;-74
2022/04/21 00:36:46;;;;;;;8.70;4.93;;;9.70;99.90;;;;;;5075685;28;20039;-74
2022/04/21 00:39:11;;;;;;;6.88;4.72;;;9.70;99.90;;;;;;5075762;28;20055;-74
2022/04/21 00:41:37;;;;;;;8.05;5.20;;;9.70;99.90;;;;;;5076039;28;20118;-74
2022/04/21 00:44:03;;;;;;;12.02;4.90;;;9.70;99.90;;;;;;5075990;28;20040;-74
2022/04/21 00:46:29;;;;;;;7.65;5.15;;;9.70;99.90;;;;;;5075753;28;20036;-74
2022/04/21 00:48:56;;;;;;;8.13;4.82;;;9.70;99.90;;;;;;5075705;28;20378;-74
2022/04/21 00:51:24;;;;;;;8.25;5.50;;;9.70;99.90;;;;;;5075740;28;20054;-74
2022/04/21 00:53:49;;;;;;;8.18;5.50;;;9.60;99.90;;;;;;5075652;28;20091;-74
2022/04/21 00:56:15;;;;;;;8.50;5.25;;;9.60;99.90;;;;;;5059061;28;20539;-74
2022/04/21 00:58:43;;;;;;;11.13;4.95;;;9.60;99.90;;;;;;5075321;28;20454;-74
2022/04/21 01:02:46;;;;;;;7.38;5.57;;;9.60;99.90;;;;;;5075379;28;20093;-74
2022/04/21 01:03:55;;;;;;;10.90;5.28;;;9.50;99.90;;;;;;5075404;28;20040;-74
2022/04/21 01:06:24;;;;;;;8.02;5.38;;;9.50;99.90;;;;;;5075574;28;20416;-74
2022/04/21 01:08:50;;;;;;;9.00;5.10;;;9.50;99.90;;;;;;5058393;28;20044;-74
2022/04/21 01:11:17;;;;;;;9.38;5.53;;;9.50;99.90;;;;;;5075208;28;20126;-74
2022/04/21 01:13:43;;;;;;;13.82;6.30;;;9.40;99.90;;;;;;5075216;28;20050;-74
2022/04/21 01:16:08;;;;;;;8.93;5.18;;;9.40;99.90;;;;;;5075299;28;20146;-74
2022/04/21 01:18:34;;;;;;;7.85;5.07;;;9.40;99.90;;;;;;5075333;28;20479;-74
2022/04/21 01:21:00;;;;;;;8.80;5.07;;;9.40;99.90;;;;;;5075463;28;20080;-74
2022/04/21 01:23:25;;;;;;;8.85;5.75;;;9.40;99.90;;;;;;5075077;28;20451;-74
2022/04/21 01:25:52;;;;;;;8.98;5.75;;;9.40;99.90;;;;;;5075057;28;20361;-74
2022/04/21 01:28:19;;;;;;;9.20;5.35;;;9.40;99.90;;;;;;5075332;28;20101;-74
2022/04/21 01:30:45;;;;;;;9.98;6.25;;;9.30;99.90;;;;;;5074935;28;20074;-74
2022/04/21 01:33:10;;;;;;;12.65;6.10;;;9.30;99.90;;;;;;5075036;28;20075;-74
2022/04/21 01:35:37;;;;;;;8.63;6.07;;;9.20;99.90;;;;;;5058350;28;20036;-74
2022/04/21 01:43:31;;;;;;;10.35;6.28;;;9.10;99.90;;;;;;5078425;28;20039;-73
2022/04/21 01:45:56;;;;;;;9.75;5.72;;;9.00;99.90;;;;;;5079328;28;20101;-73
2022/04/21 01:48:22;;;;;;;11.10;6.07;;;9.00;99.90;;;;;;5079021;28;20039;-73
2022/04/21 01:50:48;;;;;;;8.18;5.85;;;9.00;99.90;;;;;;5078741;28;20036;-73
2022/04/21 01:53:13;;;;;;;10.55;6.15;;;9.00;99.90;;;;;;5079164;28;20062;-73
2022/04/21 01:55:39;;;;;;;9.30;5.95;;;9.00;99.90;;;;;;5078823;28;20392;-73
2022/04/21 01:58:05;;;;;;;10.73;6.07;;;9.00;99.90;;;;;;5078802;28;20416;-73
2022/04/21 02:00:30;;;;;;;9.65;6.00;;;9.00;99.90;;;;;;5078853;28;20576;-73
2022/04/21 02:02:56;;;;;;;8.63;5.70;;;9.00;99.90;;;;;;5078507;28;20404;-73
2022/04/21 02:05:21;;;;;;;9.80;6.78;;;9.00;99.90;;;;;;5062165;28;20086;-73
2022/04/21 02:07:47;;;;;;;9.60;6.28;;;9.00;99.90;;;;;;5061883;28;20071;-73
2022/04/21 02:10:15;;;;;;;8.73;6.35;;;8.90;99.90;;;;;;5078247;28;20097;-73
2022/04/21 02:12:41;;;;;;;11.98;7.15;;;8.90;99.90;;;;;;5078695;28;20059;-73
2022/04/21 02:15:07;;;;;;;11.10;7.45;;;8.90;99.90;;;;;;5078394;28;20496;-73
2022/04/21 02:17:33;;;;;;;11.00;7.10;;;8.90;99.90;;;;;;5078364;28;20507;-73
2022/04/21 02:20:09;;;;;;;10.13;6.68;;;8.80;99.90;;;;;;5061907;28;20088;-73
2022/04/21 02:22:35;;;;;;;;;;;8.80;99.90;;;;;;5078674;28;20112;-73
2022/04/21 02:25:04;;;;;;;10.68;6.93;;;8.70;99.90;;;;;;5078184;28;19969;-73
2022/04/21 02:27:30;;;;;;;9.77;6.97;;;8.60;99.90;;;;;;5078163;28;20040;-73
2022/04/21 02:29:56;;;;;;;11.32;7.60;;;8.60;99.90;;;;;;5077919;28;20410;-73
2022/04/21 02:32:22;;;;;;;12.07;7.53;;;8.60;99.90;;;;;;5078337;28;20047;-73
2022/04/21 02:34:48;;;;;;;11.45;7.28;;;8.60;99.90;;;;;;5078022;28;20447;-73
2022/04/21 02:37:13;;;;;;;9.38;6.80;;;8.60;99.90;;;;;;5077948;28;20067;-73
2022/04/21 02:39:39;;;;;;;9.43;7.88;;;8.60;99.90;;;;;;5078200;28;20040;-73
2022/04/21 02:42:05;;;;;;;9.45;7.45;;;8.60;99.90;;;;;;5077906;28;20403;-73
2022/04/21 02:44:31;;;;;;;9.50;6.93;;;8.60;99.90;;;;;;5077659;28;20036;-73
2022/04/21 02:46:59;;;;;;;8.98;7.45;;;8.60;99.90;;;;;;5078056;28;20048;-73
2022/04/21 02:49:25;;;;;;;12.00;7.07;;;8.60;99.90;;;;;;5077749;28;20044;-73
2022/04/21 02:51:52;;;;;;;11.27;7.10;;;8.50;99.90;;;;;;5077956;28;20059;-74
2022/04/21 02:57:20;;;;;;;14.60;7.10;;;8.60;99.90;;;;;;5077617;28;20048;-74
2022/04/21 02:59:47;;;;;;;9.95;7.30;;;8.60;99.90;;;;;;5077537;28;20047;-74
2022/04/21 03:02:13;;;;;;;11.68;7.63;;;8.50;99.90;;;;;;5077532;28;20031;-74
2022/04/21 03:04:38;;;;;;;11.90;7.47;;;8.50;99.90;;;;;;5077469;28;20062;-74
2022/04/21 03:07:04;;;;;;;10.65;8.13;;;8.50;99.90;;;;;;5077453;28;20089;-74
2022/04/21 03:09:32;;;;;;;12.32;7.55;;;8.50;99.90;;;;;;5077299;28;20504;-74
2022/04/21 03:12:04;;;;;;;9.23;6.68;;;8.50;99.90;;;;;;5060702;28;20037;-74
2022/04/21 03:14:30;;;;;;;11.50;8.18;;;8.50;99.90;;;;;;5077569;28;20432;-74
2022/04/21 03:16:57;;;;;;;10.52;7.47;;;8.40;99.90;;;;;;5077289;28;20040;-74
2022/04/21 03:19:22;;;;;;;9.73;7.13;;;8.40;99.90;;;;;;5060506;28;20488;-74
2022/04/21 03:24:32;;;;;;;10.25;7.53;;;8.40;99.90;;;;;;5077012;28;20078;-74
2022/04/21 03:26:58;;;;;;;10.55;7.05;;;8.40;99.90;;;;;;5077357;28;20084;-74
2022/04/21 03:29:24;;;;;;;11.30;7.25;;;8.40;99.90;;;;;;5077011;28;20489;-74
2022/04/21 03:31:50;;;;;;;12.38;7.80;;;8.40;99.90;;;;;;5077050;28;20065;-74
2022/04/21 03:34:20;;;;;;;12.25;7.82;;;8.30;99.90;;;;;;5060498;28;20054;-74
2022/04/21 03:39:13;;;;;;;10.95;7.78;;;8.30;99.90;;;;;;5076760;28;20044;-74
2022/04/21 03:41:38;;;;;;;13.98;7.53;;;8.30;99.90;;;;;;5077008;28;20113;-74
2022/04/21 03:44:05;;;;;;;10.27;8.20;;;8.20;99.90;;;;;;5076586;28;20115;-74
2022/04/21 03:46:31;;;;;;;11.88;7.53;;;8.20;99.90;;;;;;5076677;28;20508;-74
2022/04/21 03:49:00;;;;;;;9.85;7.43;;;8.20;99.90;;;;;;5076534;28;20040;-74
2022/04/21 03:51:27;;;;;;;12.07;7.32;;;8.20;99.90;;;;;;5076659;28;20043;-74
2022/04/21 03:53:54;;;;;;;13.25;8.13;;;8.20;99.90;;;;;;5076863;28;20122;-74
2022/04/21 03:56:20;;;;;;;12.02;8.30;;;8.10;99.90;;;;;;5076505;28;20044;-74
2022/04/21 03:58:46;;;;;;;13.38;8.00;;;8.10;99.90;;;;;;5076558;28;20109;-74
2022/04/21 04:01:14;;;;;;;11.07;8.65;;;8.10;99.90;;;;;;5076359;28;20032;-74
2022/04/21 04:03:40;;;;;;;10.15;7.72;;;8.10;99.90;;;;;;5076230;28;20035;-74
2022/04/21 04:10:51;;;;;;;10.43;7.90;;;8.00;99.90;;;;;;5075759;28;20101;-74
2022/04/21 04:11:39;;;;;;;12.07;9.32;;;8.00;99.90;;;;;;5076328;28;20036;-74
2022/04/21 04:14:07;;;;;;;11.07;9.20;;;8.00;99.90;;;;;;5059455;28;20412;-74
2022/04/21 04:16:36;;;;;;;10.95;7.82;;;7.90;99.90;;;;;;5076067;28;20040;-74
2022/04/21 04:19:03;;;;;;;12.38;8.77;;;7.90;99.90;;;;;;5075922;28;20050;-74
2022/04/21 04:21:30;;;;;;;11.73;7.97;;;7.90;99.90;;;;;;5076194;28;20496;-74
2022/04/21 04:23:57;;;;;;;11.77;9.15;;;7.80;99.90;;;;;;5075851;28;20547;-74
2022/04/21 04:26:22;;;;;;;13.88;9.15;;;7.80;99.90;;;;;;5075866;28;20044;-74
2022/04/21 04:28:49;;;;;;;10.57;8.57;;;7.80;99.90;;;;;;5076029;28;20032;-74
2022/04/21 04:31:15;;;;;;;11.25;8.32;;;7.80;99.90;;;;;;5075766;28;20531;-74
2022/04/21 04:33:40;;;;;;;11.18;8.18;;;7.70;99.90;;;;;;5075745;28;20040;-74
2022/04/21 04:36:07;;;;;;;10.65;7.93;;;7.70;99.90;;;;;;5075868;28;20051;-75
2022/04/21 04:38:32;;;;;;;12.85;8.80;;;7.70;99.90;;;;;;5075654;28;20039;-75
2022/04/21 04:42:16;;;;;;;11.15;8.32;;;7.70;99.90;;;;;;5075672;28;20047;-75
2022/04/21 04:43:43;;;;;;;12.93;10.07;;;7.70;99.90;;;;;;5075546;28;20079;-75
2022/04/21 04:48:54;;;;;;;12.15;7.95;;;7.70;99.90;;;;;;5075450;28;20040;-75
2022/04/21 04:51:20;;;;;;;11.52;8.07;;;7.70;99.90;;;;;;5075479;28;20032;-75
2022/04/21 04:53:46;;;;;;;12.35;8.68;;;7.70;99.90;;;;;;5075770;28;20123;-75
2022/04/21 04:56:14;;;;;;;10.98;8.77;;;7.70;99.90;;;;;;5075453;28;20042;-75
2022/04/21 04:58:40;;;;;;;12.20;8.50;;;7.70;99.90;;;;;;5075333;28;20079;-75
2022/04/21 05:01:05;;;;;;;14.05;8.73;;;7.70;99.90;;;;;;5075372;28;20128;-75
2022/04/21 05:03:31;;;;;;;12.20;9.23;;;7.70;99.90;;;;;;5075495;28;20189;-75
2022/04/21 05:05:57;;;;;;;10.00;8.70;;;7.70;99.90;;;;;;5075338;28;20051;-75
2022/04/21 05:08:22;;;;;;;12.35;8.75;;;7.70;99.90;;;;;;5075305;28;20036;-75
2022/04/21 05:10:48;;;;;;;12.63;9.13;;;7.70;99.90;;;;;;5075181;28;20123;-75
2022/04/21 05:13:14;;;;;;;10.30;8.32;;;7.70;99.90;;;;;;5058513;28;20046;-75
2022/04/21 05:15:39;;;;;;;13.48;9.30;;;7.70;99.90;;;;;;5075215;28;20404;-75
2022/04/21 05:18:05;;;;;;;14.73;8.50;;;7.70;99.90;;;;;;5074518;28;20515;-75
2022/04/21 05:20:31;;;;;;;12.02;8.20;;;7.70;99.90;;;;;;5075042;28;20036;-75
2022/04/21 05:23:05;;;;;;;11.35;8.63;;;7.80;99.90;;;;;;5075031;28;20094;-75
2022/04/21 05:25:33;;;;;;;11.75;8.38;;;7.80;99.90;;;;;;5075110;28;20123;-75
2022/04/21 05:27:59;;;;;;;10.30;8.27;;;7.80;99.90;;;;;;5075354;28;20082;-74
2022/04/21 05:33:10;;;;;;;11.38;8.30;;;7.90;99.90;;;;;;5075005;28;20079;-75
2022/04/21 05:35:36;;;;;;;12.35;8.57;;;8.00;99.90;;;;;;5075034;28;20036;-74
2022/04/21 05:38:02;;;;;;;11.65;7.97;;;8.00;99.90;;;;;;5075024;28;20082;-74
2022/04/21 05:40:28;;;;;;;11.27;8.70;;;8.10;99.90;;;;;;5075131;28;20036;-74
2022/04/21 05:42:58;;;;;;;11.70;7.90;;;8.10;99.90;;;;;;5074819;28;20454;-74
2022/04/21 05:45:23;;;;;;;13.43;8.32;;;8.20;99.90;;;;;;5074873;28;20051;-74
2022/04/21 05:47:49;;;;;;;11.90;7.60;;;8.20;99.90;;;;;;5074889;28;20036;-74
2022/04/21 05:50:16;;;;;;;10.57;7.65;;;8.20;99.90;;;;;;5057625;28;20040;-74
2022/04/21 05:52:44;;;;;;;12.20;7.57;;;8.30;99.90;;;;;;5074864;28;20090;-74
2022/04/21 05:55:10;;;;;;;11.48;7.55;;;8.40;99.90;;;;;;5074806;28;20040;-74
2022/04/21 05:57:40;;;;;;;11.77;8.05;;;8.40;99.90;;;;;;5074819;28;20040;-73
2022/04/21 06:00:07;;;;;;;11.18;7.20;;;8.40;99.90;;;;;;5075056;28;20036;-73
2022/04/21 06:02:34;;;;;;;11.05;8.07;;;8.50;99.90;;;;;;5075064;28;20032;-74
2022/04/21 06:05:00;;;;;;;9.55;7.47;;;8.50;99.90;;;;;;5074643;28;20061;-74
2022/04/21 06:07:26;;;;;;;12.15;7.43;;;8.50;99.90;;;;;;5074749;28;20070;-74
2022/04/21 06:09:51;;;;;;;13.65;7.68;;;8.60;99.90;;;;;;5074830;28;20082;-74
2022/04/21 06:12:17;;;;;;;11.38;7.22;;;8.60;99.90;;;;;;5074917;28;20191;-74
2022/04/21 06:14:45;;;;;;;8.85;6.85;;;8.70;99.90;;;;;;5074642;28;20043;-73
2022/04/21 06:17:10;;;;;;;9.93;6.88;;;8.70;99.90;;;;;;5074626;28;20393;-73
2022/04/21 06:19:36;;;;;;;10.48;6.97;;;8.80;99.90;;;;;;5074503;28;20047;-74
2022/04/21 06:22:02;;;;;;;10.82;6.30;;;8.80;99.90;;;;;;5074605;28;20036;-73
2022/04/21 06:24:29;;;;;;;11.43;6.68;;;8.90;99.90;;;;;;5074628;28;20036;-73
2022/04/21 06:26:57;;;;;;;9.40;6.40;;;9.00;99.90;;;;;;5075151;28;20054;-73
2022/04/21 06:29:23;;;;;;;9.20;5.82;;;9.10;99.90;;;;;;5078131;28;20040;-73
2022/04/21 06:31:48;;;;;;;7.53;5.82;;;9.20;99.90;;;;;;5078205;28;20123;-74
2022/04/21 06:34:14;;;;;;;7.05;5.30;;;9.20;99.90;;;;;;5078082;28;20040;-74
2022/04/21 06:36:39;;;;;;;8.63;4.78;;;9.30;99.90;;;;;;5078042;28;20043;-74
2022/04/21 06:39:05;;;;;;;6.80;5.20;;;9.40;99.90;;;;;;5061307;28;20044;-74
2022/04/21 06:41:30;;;;;;;7.72;5.10;;;9.40;99.90;;;;;;5078588;28;20123;-73
2022/04/21 06:49:24;;;;;;;8.75;5.07;;;9.70;99.90;;;;;;5078249;28;20040;-73
2022/04/21 06:51:50;;;;;;;5.95;4.22;;;9.80;99.90;;;;;;5077760;28;20389;-74
2022/04/21 06:54:15;;;;;;;6.93;4.32;;;9.90;99.90;;;;;;5077758;28;20036;-74
2022/04/21 06:56:48;;;;;;;7.25;4.10;;;10.00;99.90;;;;;;5045023;28;20097;-74
2022/04/21 06:59:17;;;;;;;5.53;3.70;;;10.10;99.90;;;;;;5077558;28;20044;-74
2022/04/21 07:01:46;;;;;;;5.78;3.53;;;10.20;99.90;;;;;;5077578;28;20131;-74
2022/04/21 07:04:13;;;;;;;4.45;3.20;;;10.30;99.90;;;;;;5077665;28;20036;-74
2022/04/21 07:06:38;;;;;;;6.72;2.95;;;10.40;99.90;;;;;;5077508;28;20076;-74
2022/04/21 07:09:04;;;;;;;7.53;3.63;;;10.50;99.90;;;;;;5077356;28;20063;-74
2022/04/21 07:11:30;;;;;;;5.93;3.28;;;10.70;99.90;;;;;;5060811;28;20035;-74
2022/04/21 07:13:57;;;;;;;4.93;3.08;;;10.80;99.90;;;;;;5077365;28;20058;-73
2022/04/21 07:16:22;;;;;;;4.20;2.90;;;10.90;99.90;;;;;;5077321;28;20032;-73
2022/04/21 07:18:48;;;;;;;6.13;2.63;;;11.00;99.90;;;;;;5077243;28;20471;-74
2022/04/21 07:21:16;;;;;;;3.78;2.85;;;11.10;99.90;;;;;;5060585;28;20036;-74
2022/04/21 07:23:42;;;;;;;4.57;2.50;;;11.20;99.90;;;;;;5077110;28;20071;-74
2022/04/21 07:26:08;;;;;;;4.10;2.60;;;11.30;99.90;;;;;;5077123;28;20044;-74
2022/04/21 07:28:34;;;;;;;3.67;2.20;;;11.40;99.90;;;;;;5076948;28;20036;-75
2022/04/21 07:31:00;;;;;;;4.75;2.28;;;11.50;99.90;;;;;;5077010;28;20040;-74
2022/04/21 07:33:26;;;;;;;5.60;2.33;;;11.60;99.80;;;;;;5076999;28;20040;-74
2022/04/21 07:35:51;;;;;;;4.97;2.35;;;11.60;99.60;;;;;;5077177;28;20051;-74
2022/04/21 07:38:17;;;;;;;4.93;2.40;;;11.80;99.90;;;;;;5076933;28;20052;-74
2022/04/21 07:40:43;;;;;;;4.65;2.50;;;11.90;98.70;;;;;;5075857;28;20462;-74
2022/04/21 07:43:09;;;;;;;4.05;1.98;;;11.90;98.00;;;;;;5060053;28;20040;-74
2022/04/21 07:45:38;;;;;;;4.63;2.10;;;12.10;96.60;;;;;;5076669;28;20127;-74
2022/04/21 07:48:04;;;;;;;3.25;1.80;;;12.10;96.10;;;;;;5076723;28;20046;-73
2022/04/21 07:50:30;;;;;;;3.58;2.10;;;12.20;94.60;;;;;;5076494;28;20032;-73
2022/04/21 07:53:13;;;;;;;6.07;2.20;;;12.30;93.40;;;;;;5076612;28;20085;-73
2022/04/21 07:55:44;;;;;;;5.35;2.40;;;12.50;93.80;;;;;;5076796;28;20036;-73
2022/04/21 07:58:10;;;;;;;3.30;1.90;;;12.60;92.90;;;;;;5076520;28;20070;-73
2022/04/21 08:00:39;;;;;;;4.20;2.25;;;12.70;92.20;;;;;;5076351;28;20565;-73
2022/04/21 08:03:06;;;;;;;4.95;2.17;;;12.80;91.50;;;;;;5076325;28;20047;-73
2022/04/21 08:05:32;;;;;;;6.00;2.40;;;13.00;90.70;;;;;;5059653;28;20475;-73
2022/04/21 08:07:58;;;;;;;5.80;2.40;;;13.10;89.60;;;;;;5076461;28;20131;-73
2022/04/21 08:10:27;;;;;;;5.38;2.35;;;13.20;88.70;;;;;;5059739;28;20404;-74
2022/04/21 08:12:54;;;;;;;4.13;2.35;;;13.30;85.10;;;;;;5076171;28;20032;-74
2022/04/21 08:15:21;;;;;;;5.82;2.60;;;13.40;83.20;;;;;;5076102;28;20051;-73
2022/04/21 08:17:47;;;;;;;2.53;2.05;;;13.50;81.70;;;;;;5076113;28;20093;-73
2022/04/21 08:20:13;;;;;;;3.42;2.08;;;13.70;80.80;;;;;;5075959;28;20040;-73
2022/04/21 08:22:39;;;;;;;5.97;2.33;;;13.70;79.10;;;;;;5076089;28;20043;-73
2022/04/21 08:33:19;;;;;;;5.15;2.50;;;14.30;70.70;;;;;;5075801;28;20044;-72
2022/04/21 08:35:46;;;;;;;3.53;1.70;;;14.40;69.50;;;;;;5075764;28;20036;-74
2022/04/21 08:38:12;;;;;;;3.90;2.03;;;14.60;67.60;;;;;;5075733;28;20040;-74
2022/04/21 08:40:41;;;;;;;3.38;2.17;;;14.80;66.00;;;;;;5075510;28;20052;-73
2022/04/21 08:43:16;;;;;;;6.38;2.30;;;14.90;65.10;;;;;;5075772;28;20484;-73
2022/04/21 08:45:43;;;;;;;7.28;2.65;;;15.00;63.30;;;;;;5075545;28;20089;-73
2022/04/21 08:48:14;;;;;;;5.18;2.30;;;15.10;64.60;;;;;;5075581;28;20051;-76
2022/04/21 08:50:40;;;;;;;4.65;2.40;;;15.20;65.50;;;;;;5075788;28;20036;-76
2022/04/21 08:53:09;;;;;;;6.90;2.58;;;15.30;65.50;;;;;;5075623;28;20077;-74
2022/04/21 08:55:35;;;;;;;4.97;2.42;;;15.50;65.30;;;;;;5075421;28;20043;-73
2022/04/21 08:58:01;;;;;;;5.80;2.67;;;15.50;65.10;;;;;;5059105;28;20039;-73
2022/04/21 09:00:27;;;;;;;4.70;3.28;;;15.50;64.50;;;;;;5075329;28;20044;-73
2022/04/21 09:02:53;;;;;;;4.43;2.30;;;15.60;65.00;;;;;;5075264;28;20047;-73
2022/04/21 09:05:22;;;;;;;4.25;2.70;;;15.60;63.60;;;;;;5075531;28;20079;-72
2022/04/21 09:07:49;;;;;;;5.97;2.42;;;15.70;63.30;;;;;;5075570;28;20032;-72
2022/04/21 09:10:16;;;;;;;3.47;2.47;;;15.70;62.60;;;;;;5075280;28;20028;-72
2022/04/21 09:12:55;;;;;;;3.92;1.92;;;15.80;62.10;;;;;;5075281;28;20111;-72
2022/04/21 09:15:23;;;;;;;4.10;2.15;;;16.00;62.50;;;;;;5075524;28;20114;-72
2022/04/21 09:17:51;;;;;;;7.45;2.40;;;16.10;61.00;;;;;;5075206;28;20058;-72
2022/04/21 09:20:26;;;;;;;6.05;2.22;;;16.30;60.60;;;;;;5075110;28;20032;-72
2022/04/21 09:22:56;;;;;;;5.28;2.13;;;16.40;59.40;;;;;;5075070;28;20089;-72
2022/04/21 09:25:26;;;;;;;3.53;2.25;;;16.60;58.80;;;;;;5075156;28;20051;-72
2022/04/21 09:27:53;;;;;;;4.97;2.20;;;16.80;58.30;;;;;;5075356;28;20089;-72
2022/04/21 09:30:18;;;;;;;3.95;2.05;;;16.90;59.40;;;;;;5075032;28;20557;-72
2022/04/21 09:32:53;;;;;;;4.63;1.88;;;17.20;58.10;;;;;;5074994;28;20036;-72
2022/04/21 09:35:20;;;;;;;4.75;2.20;;;17.40;57.10;;;;;;5075124;28;20123;-72
2022/04/21 09:37:53;;;;;;;5.38;2.22;;;17.50;56.60;;;;;;5075351;28;20042;-72
2022/04/21 09:40:20;;;;;;;5.35;2.17;;;17.70;56.00;;;;;;5075209;28;20044;-72
2022/04/21 09:43:00;;;;;;;4.50;2.42;;;17.70;55.80;;;;;;5074978;28;20028;-72
2022/04/21 09:48:21;;;;;;;2.80;1.90;;;18.00;54.80;;;;;;5075094;28;20036;-72
2022/04/21 09:50:51;;;;;;;3.90;1.80;;;18.10;54.10;;;;;;5074868;28;20532;-72
2022/04/21 09:53:24;;;;;;;4.03;1.88;;;18.00;53.90;;;;;;5075112;28;20075;-71
2022/04/21 09:55:51;;;;;;;4.82;1.85;;;18.00;53.10;;;;;;5074956;28;20393;-71
2022/04/21 09:58:18;;;;;;;5.90;2.22;;;17.90;53.70;;;;;;5075023;28;20099;-77
2022/04/21 10:00:44;;;;;;;2.50;1.63;;;18.10;53.20;;;;;;5074742;28;20085;-71
2022/04/21 10:03:11;;;;;;;4.32;2.15;;;18.10;52.70;;;;;;5076098;28;20054;-71
2022/04/21 10:05:39;;;;;;;6.00;2.00;;;18.10;52.20;;;;;;5078911;28;20039;-71
2022/04/21 10:08:10;;;;;;;3.47;2.00;;;18.20;51.70;;;;;;5078596;28;20381;-71
2022/04/21 10:10:37;;;;;;;4.50;2.03;;;18.20;50.90;;;;;;5078499;28;20446;-71
2022/04/21 10:13:05;;;;;;;6.13;2.00;;;18.40;50.70;;;;;;5078807;28;20488;-71
2022/04/21 10:15:31;;;;;;;6.72;1.88;;;18.50;51.40;;;;;;5078430;28;20036;-71
2022/04/21 10:17:57;;;;;;;3.47;1.70;;;18.70;51.20;;;;;;5078675;28;20032;-71
2022/04/21 10:20:24;;;;;;;4.75;2.00;;;18.90;51.30;;;;;;5078351;28;20040;-71
2022/04/21 10:22:54;;;;;;;3.72;1.73;;;19.10;51.10;;;;;;5078259;28;20497;-71
2022/04/21 10:25:22;;;;;;;2.80;1.80;;;19.10;49.90;;;;;;5078310;28;20072;-71
2022/04/21 10:27:49;;;;;;;3.65;1.80;;;19.10;49.90;;;;;;5078232;28;20047;-71
2022/04/21 10:30:19;;;;;;;2.65;1.80;;;19.20;49.60;;;;;;5078111;28;20036;-71
2022/04/21 10:32:46;;;;;;;3.60;1.70;;;19.20;49.40;;;;;;5078165;28;20040;-70
2022/04/21 10:35:19;;;;;;;4.95;1.73;;;19.40;49.00;;;;;;5078374;28;20048;-72
2022/04/21 10:37:46;;;;;;;8.23;1.77;;;19.60;47.50;;;;;;5078345;28;20153;-70
2022/04/21 10:40:15;;;;;;;5.40;1.60;;;19.70;47.50;;;;;;5061314;28;20047;-71
2022/04/21 10:42:52;;;;;;;3.15;1.65;;;19.70;47.00;;;;;;5078028;28;20035;-72
2022/04/21 10:45:23;;;;;;;7.15;2.00;;;19.70;46.40;;;;;;5077847;28;20051;-71
2022/04/21 10:48:04;;;;;;;3.90;1.45;;;19.70;46.90;;;;;;5077865;28;20047;-72
2022/04/21 10:50:31;;;;;;;3.80;1.70;;;19.80;45.00;;;;;;5077978;28;20115;-72
2022/04/21 10:58:37;;;;;;;2.35;1.48;;;19.90;45.10;;;;;;5077688;28;20040;-72
2022/04/21 11:01:27;;;;;;;3.78;1.85;;;20.00;44.30;;;;;;5077615;28;20040;-72
2022/04/21 11:04:10;;;;;;;2.47;1.30;;;20.10;46.40;;;;;;5060914;28;20089;-72
2022/04/21 11:06:40;;;;;;;7.00;1.60;;;20.20;45.40;;;;;;5077651;28;20048;-73
2022/04/21 11:09:07;;;;;;;2.75;1.58;;;20.40;44.50;;;;;;5077660;28;20040;-73
2022/04/21 11:11:47;;;;;;;6.93;1.90;;;20.50;44.30;;;;;;5077605;28;20557;-73
2022/04/21 11:14:31;;;;;;;4.38;1.92;;;20.60;43.70;;;;;;5076852;28;20062;-72
2022/04/21 11:16:57;;;;;;;4.70;2.00;;;20.70;44.40;;;;;;5077410;28;20090;-72
2022/04/21 11:19:29;;;;;;;2.97;1.90;;;20.80;44.70;;;;;;5077447;28;20103;-72
2022/04/21 11:21:56;;;;;;;3.47;2.20;;;20.80;44.60;;;;;;5077242;28;20408;-72
2022/04/21 11:24:23;;;;;;;5.25;2.30;;;20.90;44.20;;;;;;5077105;28;20046;-72
2022/04/21 11:26:59;;;;;;;3.28;1.95;;;20.90;44.20;;;;;;5077145;28;20048;-72
2022/04/21 11:29:25;;;;;;;4.15;1.98;;;21.00;44.20;;;;;;5077071;28;20119;-72
2022/04/21 11:32:01;;;;;;;2.95;1.70;;;21.10;45.00;;;;;;5077077;28;20115;-72
2022/04/21 11:34:26;;;;;;;4.32;2.30;;;21.30;44.80;;;;;;5077213;28;20070;-72
2022/04/21 11:37:01;;;;;;;6.80;2.35;;;21.30;44.70;;;;;;5060901;28;20032;-72
2022/04/21 11:39:27;;;;;;;4.55;2.00;;;21.30;44.40;;;;;;5076833;28;20048;-72
2022/04/21 11:41:53;;;;;;;4.05;1.98;;;21.40;44.20;;;;;;5077707;28;20051;-72
2022/04/21 11:44:22;;;;;;;4.93;1.65;;;21.40;44.40;;;;;;5076617;28;20044;-72
2022/04/21 11:46:48;;;;;;;2.63;1.50;;;21.70;44.00;;;;;;5060413;28;20051;-72
2022/04/21 11:49:14;;;;;;;4.00;1.73;;;21.70;43.00;;;;;;5076602;28;20039;-72
2022/04/21 11:51:41;;;;;;;5.32;1.90;;;21.70;43.20;;;;;;5076847;28;20082;-72
2022/04/21 11:54:10;;;;;;;4.75;1.70;;;21.70;42.80;;;;;;5077113;28;20410;-72
2022/04/21 11:56:38;;;;;;;2.58;1.88;;;21.80;43.10;;;;;;5077116;28;20092;-73
2022/04/21 11:59:10;;;;;;;4.90;1.98;;;21.80;42.80;;;;;;5076576;28;20051;-73
2022/04/21 12:07:10;;;;;;;4.35;2.20;;;22.00;43.00;;;;;;5076592;28;20040;-73
2022/04/21 12:09:39;;;;;;;4.13;1.80;;;22.10;42.70;;;;;;5077219;28;20090;-72
2022/04/21 12:12:07;;;;;;;4.72;1.83;;;22.20;41.90;;;;;;5076196;28;20500;-72
2022/04/21 12:14:33;;;;;;;5.60;1.80;;;22.30;41.40;;;;;;5076128;28;20048;-72
2022/04/21 12:17:06;;;;;;;4.53;2.30;;;22.30;41.40;;;;;;5076208;28;20040;-72
2022/04/21 12:19:39;;;;;;;3.65;1.63;;;22.30;41.80;;;;;;5076549;28;20082;-73
2022/04/21 12:22:13;;;;;;;3.40;1.98;;;22.30;42.20;;;;;;5059430;28;20512;-75
2022/04/21 12:24:46;;;;;;;5.50;2.15;;;22.20;41.60;;;;;;5075930;28;20040;-74
2022/04/21 12:27:23;;;;;;;6.00;2.47;;;22.20;41.70;;;;;;5075833;28;20040;-74
2022/04/21 12:29:59;;;;;;;5.97;2.08;;;22.20;41.30;;;;;;5075882;28;20119;-72
2022/04/21 12:32:54;;;;;;;4.25;2.20;;;22.10;42.00;;;;;;5059273;28;20527;-72
2022/04/21 12:35:44;;;;;;;8.05;2.63;;;22.10;41.90;;;;;;4996278;28;20537;-72
2022/04/21 12:41:01;;;;;;;5.00;2.70;;;22.30;43.20;;;;;;4995359;28;20049;-72
2022/04/21 12:43:28;;;;;;;7.03;2.50;;;22.40;42.80;;;;;;5011989;28;20197;-72
2022/04/21 12:45:55;;;;;;;4.50;2.70;;;22.40;42.90;;;;;;4995587;28;20050;-72
2022/04/21 12:48:25;;;;;;;5.30;2.40;;;22.30;42.60;;;;;;4995432;28;20037;-71
2022/04/21 12:50:52;;;;;;;5.30;2.50;;;22.30;42.60;;;;;;4995302;28;20041;-71
2022/04/21 12:53:31;;;;;;;5.90;2.65;;;22.30;42.80;;;;;;5011817;28;20514;-72
2022/04/21 12:56:15;;;;;;;4.47;2.15;;;22.50;43.30;;;;;;5012252;28;20561;-74
2022/04/21 12:58:44;;;;;;;5.97;2.40;;;22.60;42.60;;;;;;4995359;28;20446;-74
2022/04/21 13:01:10;;;;;;;9.73;2.97;;;22.70;42.30;;;;;;5012558;28;20546;-74
2022/04/21 13:03:38;;;;;;;5.85;3.15;;;22.70;42.10;;;;;;5012096;28;20041;-74
2022/04/21 13:06:04;;;;;;;5.40;3.00;;;22.60;42.20;;;;;;4995838;28;20058;-74
2022/04/21 13:08:29;;;;;;;4.28;3.00;;;22.60;42.50;;;;;;4995707;28;20042;-74
2022/04/21 13:10:57;;;;;;;6.43;2.95;;;22.50;42.50;;;;;;5025764;28;20117;-75
2022/04/21 13:13:24;;;;;;;4.70;2.92;;;22.40;42.00;;;;;;5076092;28;20047;-75
2022/04/21 13:15:50;;;;;;;4.40;2.50;;;22.40;42.30;;;;;;5075486;28;20036;-74
2022/04/21 13:18:16;;;;;;;5.03;2.83;;;22.30;43.00;;;;;;5058665;28;20047;-75
2022/04/21 13:23:28;;;;;;;6.72;3.10;;;22.20;43.90;;;;;;5076166;28;20044;-74
2022/04/21 13:25:54;;;;;;;6.63;3.10;;;22.10;43.40;;;;;;5075492;28;20493;-74
2022/04/21 13:28:21;;;;;;;6.80;3.30;;;22.10;43.80;;;;;;5075237;28;20503;-75
2022/04/21 13:30:46;;;;;;;4.07;2.70;;;22.10;43.50;;;;;;5075261;28;20504;-74
2022/04/21 13:33:24;;;;;;;5.90;2.92;;;22.10;43.80;;;;;;5074968;28;20048;-74
2022/04/21 13:35:54;;;;;;;8.48;3.88;;;22.10;43.60;;;;;;5076365;28;20036;-75
2022/04/21 13:38:21;;;;;;;12.10;2.83;;;22.10;43.70;;;;;;5078526;28;20404;-73
2022/04/21 13:40:47;;;;;;;5.38;3.42;;;22.10;43.50;;;;;;5079416;28;20040;-76
2022/04/21 13:43:13;;;;;;;5.88;3.25;;;22.20;43.80;;;;;;5079282;28;20114;-75
2022/04/21 13:45:39;;;;;;;6.72;3.35;;;22.40;43.80;;;;;;5078955;28;20040;-75
2022/04/21 13:48:07;;;;;;;7.40;3.05;;;22.40;43.30;;;;;;5079051;28;20032;-74
2022/04/21 13:50:34;;;;;;;3.78;2.85;;;22.20;43.60;;;;;;5062272;28;20062;-74